Time;durP1;ratioP1;P1;durP2;ratioP2;P2;SDS_P1;SDS_P2;PMS_P1;PMS_P2;Temp;Humidity;BMP_temperature;BMP_pressure;BME280_temperature;BME280_humidity;BME280_pressure;Samples;Min_cycle;Max_cycle;Signal;HPM_P1;HPM_P2
2023/05/14 06:05:12;;;;;;;3.47;2.63;;;;;;;;;;6152288;22;21022;31
2023/05/14 06:07:38;;;;;;;2.22;2.10;;;;;;;;;;4992700;28;20129;-87
2023/05/14 06:10:04;;;;;;;2.28;2.08;;;;;;;;;;4986853;28;20445;-88
2023/05/14 06:12:30;;;;;;;3.28;2.58;;;;;;;;;;5014547;28;20049;-88
2023/05/14 06:14:56;;;;;;;2.33;1.98;;;;;;;;;;5014221;28;20443;-88
2023/05/14 06:17:23;;;;;;;2.25;2.05;;;;;;;;;;5014217;28;20096;-88
2023/05/14 06:19:48;;;;;;;2.55;2.05;;;;;;;;;;5014020;28;20373;-88
2023/05/14 06:22:14;;;;;;;2.08;1.98;;;;;;;;;;5014836;28;20122;-88
2023/05/14 06:24:39;;;;;;;2.53;2.33;;;;;;;;;;5012624;28;20469;-88
2023/05/14 06:27:05;;;;;;;2.10;2.00;;;;;;;;;;5013524;28;20550;-88
2023/05/14 06:29:30;;;;;;;2.20;2.10;;;;;;;;;;5013687;28;20503;-88
2023/05/14 07:46:22;;;;;;;3.03;2.03;;;;;;;;;;5306540;22;20064;-87
2023/05/14 07:48:48;;;;;;;2.38;2.17;;;;;;;;;;5018101;28;20053;-86
2023/05/14 07:51:13;;;;;;;2.30;2.10;;;;;;;;;;5017565;28;20030;-85
2023/05/14 07:53:39;;;;;;;2.65;2.35;;;;;;;;;;5017478;28;20022;-86
2023/05/14 07:56:05;;;;;;;2.60;2.40;;;;;;;;;;5017180;28;20055;-90
2023/05/14 07:58:31;;;;;;;2.88;1.90;;;;;;;;;;5015690;28;20221;-85
2023/05/14 08:00:56;;;;;;;2.28;2.00;;;;;;;;;;5016430;28;20124;-85
2023/05/14 08:03:22;;;;;;;2.25;2.08;;;;;;;;;;5016783;28;20022;-86
2023/05/14 08:05:47;;;;;;;2.75;2.22;;;;;;;;;;5016708;28;20473;-87
2023/05/14 08:08:12;;;;;;;2.42;1.98;;;;;;;;;;5015493;28;20032;-86
2023/05/14 08:10:38;;;;;;;2.10;1.90;;;;;;;;;;5015223;28;20026;-87
2023/05/14 08:13:03;;;;;;;2.15;2.00;;;;;;;;;;5016459;28;20025;-88
2023/05/14 08:15:29;;;;;;;2.97;2.30;;;;;;;;;;5015169;28;20449;-87
2023/05/14 08:17:55;;;;;;;2.40;2.20;;;;;;;;;;5015141;28;20556;-87
2023/05/14 08:20:20;;;;;;;2.60;2.08;;;;;;;;;;5016392;28;20073;-87
2023/05/14 08:22:46;;;;;;;3.30;2.53;;;;;;;;;;5015015;28;20064;-87
2023/05/14 08:25:11;;;;;;;2.15;2.00;;;;;;;;;;5015221;28;20029;-87
2023/05/14 08:27:37;;;;;;;2.17;2.00;;;;;;;;;;5016172;28;20109;-87
2023/05/14 08:30:03;;;;;;;2.03;1.92;;;;;;;;;;5015132;28;20024;-87
2023/05/14 08:32:29;;;;;;;3.03;1.90;;;;;;;;;;5016079;28;20159;-88
2023/05/14 08:34:54;;;;;;;2.13;2.03;;;;;;;;;;5016140;28;20109;-87
2023/05/14 08:37:20;;;;;;;2.60;1.90;;;;;;;;;;5016131;28;20112;-87
2023/05/14 08:39:45;;;;;;;2.20;2.00;;;;;;;;;;5016491;28;20036;-89
2023/05/14 08:42:12;;;;;;;2.22;2.10;;;;;;;;;;4999021;28;20372;-88
2023/05/14 08:44:45;;;;;;;1.92;1.80;;;;;;;;;;4998928;28;20030;-89
2023/05/14 08:47:14;;;;;;;1.90;1.80;;;;;;;;;;5014505;28;20046;-88
2023/05/14 08:49:41;;;;;;;6.10;3.90;;;;;;;;;;5015741;28;20034;-89
2023/05/14 08:52:08;;;;;;;2.28;2.17;;;;;;;;;;5016480;28;20105;-88
2023/05/14 08:54:34;;;;;;;3.05;2.00;;;;;;;;;;5015700;28;20076;-88
2023/05/14 08:56:59;;;;;;;2.25;2.15;;;;;;;;;;5014440;28;20381;-88
2023/05/14 08:59:26;;;;;;;2.20;2.10;;;;;;;;;;5015550;28;20033;-87
2023/05/14 09:01:53;;;;;;;2.42;2.22;;;;;;;;;;5015716;28;20022;-88
2023/05/14 09:04:21;;;;;;;2.20;2.10;;;;;;;;;;5015556;28;20076;-88
2023/05/14 09:06:52;;;;;;;2.40;2.30;;;;;;;;;;5015436;28;20381;-88
2023/05/14 09:09:21;;;;;;;2.63;2.40;;;;;;;;;;5015449;28;20056;-87
2023/05/14 09:11:48;;;;;;;2.37;2.10;;;;;;;;;;5014300;28;20029;-87
2023/05/14 09:14:13;;;;;;;2.40;2.20;;;;;;;;;;5013930;28;20026;-89
2023/05/14 09:16:41;;;;;;;2.50;2.30;;;;;;;;;;5014014;28;20141;-88
2023/05/14 09:19:07;;;;;;;2.42;1.92;;;;;;;;;;5014219;28;20108;-88
2023/05/14 09:21:33;;;;;;;2.00;1.90;;;;;;;;;;5015234;28;20034;-88
2023/05/14 09:23:59;;;;;;;2.25;2.05;;;;;;;;;;5013623;28;20408;-87
2023/05/14 09:26:26;;;;;;;1.95;1.85;;;;;;;;;;5015133;28;20033;-87
2023/05/14 09:29:00;;;;;;;2.00;1.90;;;;;;;;;;5015338;28;20424;-87
2023/05/14 09:31:30;;;;;;;2.45;2.00;;;;;;;;;;5013802;28;20022;-88
2023/05/14 09:33:55;;;;;;;;;;;;;;;;;;5015409;28;20032;-89
2023/05/14 09:36:21;;;;;;;2.42;2.22;;;;;;;;;;5014885;28;19913;-85
2023/05/14 09:38:46;;;;;;;5.28;3.88;;;;;;;;;;5014996;28;20365;-88
2023/05/14 09:41:12;;;;;;;5.45;4.38;;;;;;;;;;5015061;28;20026;-87
2023/05/14 09:43:37;;;;;;;3.20;3.00;;;;;;;;;;5014731;28;20104;-86
2023/05/14 09:46:03;;;;;;;3.75;3.03;;;;;;;;;;5015331;28;20469;-87
2023/05/14 09:48:28;;;;;;;3.20;2.90;;;;;;;;;;5031290;28;20527;-87
2023/05/14 09:50:54;;;;;;;3.38;3.00;;;;;;;;;;5034980;28;20056;-87
2023/05/14 09:53:19;;;;;;;2.78;2.58;;;;;;;;;;5034257;28;20060;-85
2023/05/14 09:55:45;;;;;;;2.50;2.30;;;;;;;;;;5034246;28;20029;-85
2023/05/14 13:19:19;;;;;;;8.95;7.93;;;;;;;;;;5006560;28;20054;-84
2023/05/14 13:21:44;;;;;;;7.50;6.80;;;;;;;;;;5008106;28;20119;-84
2023/05/14 13:24:10;;;;;;;7.45;6.50;;;;;;;;;;5026084;28;20024;-84
2023/05/14 13:26:36;;;;;;;8.25;7.30;;;;;;;;;;5021155;28;20025;-84
2023/05/14 13:29:02;;;;;;;7.80;7.13;;;;;;;;;;5034687;28;20585;-84
2023/05/14 13:31:27;;;;;;;6.70;6.10;;;;;;;;;;5034706;28;20033;-85
2023/05/14 13:33:52;;;;;;;7.70;6.90;;;;;;;;;;5029352;28;20083;-84
2023/05/14 13:36:18;;;;;;;8.85;7.35;;;;;;;;;;5014531;28;20427;-84
2023/05/14 13:38:47;;;;;;;6.15;5.60;;;;;;;;;;5014834;28;20466;-85
2023/05/14 13:41:12;;;;;;;5.37;4.97;;;;;;;;;;4996257;28;20168;-85
2023/05/14 13:43:38;;;;;;;5.70;5.07;;;;;;;;;;5015183;28;20488;-85
2023/05/14 13:46:05;;;;;;;6.05;5.45;;;;;;;;;;5014544;28;20029;-85
2023/05/14 13:48:31;;;;;;;5.53;4.82;;;;;;;;;;5014576;28;20025;-86
2023/05/14 13:50:56;;;;;;;6.18;5.57;;;;;;;;;;5019822;28;20028;-85
2023/05/14 13:53:23;;;;;;;8.02;5.40;;;;;;;;;;5034187;28;20112;-85
2023/05/14 13:55:49;;;;;;;5.32;4.35;;;;;;;;;;5034053;28;20025;-85
2023/05/14 13:58:15;;;;;;;4.20;3.80;;;;;;;;;;5034270;28;20380;-86
2023/05/14 14:00:40;;;;;;;4.97;4.43;;;;;;;;;;5033997;28;20029;-85
2023/05/14 14:03:07;;;;;;;6.80;4.40;;;;;;;;;;5016103;28;20068;-85
2023/05/14 14:05:33;;;;;;;3.55;3.17;;;;;;;;;;5016162;28;20061;-85
2023/05/14 14:07:59;;;;;;;5.00;4.30;;;;;;;;;;5034213;28;20443;-85
2023/05/14 14:10:24;;;;;;;5.40;3.28;;;;;;;;;;5034464;28;20113;-86
2023/05/14 14:12:50;;;;;;;4.10;3.80;;;;;;;;;;5033996;28;20031;-86
2023/05/14 14:15:16;;;;;;;5.03;3.10;;;;;;;;;;5016336;28;20029;-82
2023/05/14 14:17:41;;;;;;;3.63;3.15;;;;;;;;;;5034079;28;20048;-84
2023/05/14 14:20:08;;;;;;;3.80;3.50;;;;;;;;;;5015867;28;20091;-85
2023/05/14 14:22:34;;;;;;;4.00;3.70;;;;;;;;;;5016366;28;20021;-84
2023/05/14 16:17:26;;;;;;;3.50;3.20;;;;;;;;;;5312492;23;20054;-83
2023/05/14 16:19:52;;;;;;;4.00;3.60;;;;;;;;;;5012409;28;20372;-85
2023/05/14 16:22:17;;;;;;;3.85;3.45;;;;;;;;;;5018503;28;20178;-84
2023/05/14 16:24:43;;;;;;;3.70;3.40;;;;;;;;;;5013881;28;20121;-84
2023/05/14 16:27:09;;;;;;;3.55;3.25;;;;;;;;;;4996447;28;20026;-84
2023/05/14 16:29:35;;;;;;;3.88;3.58;;;;;;;;;;4996339;28;20034;-86
2023/05/14 16:32:00;;;;;;;3.85;3.55;;;;;;;;;;4996429;28;20033;-85
2023/05/14 16:34:26;;;;;;;4.30;3.90;;;;;;;;;;5008584;28;20022;-85
2023/05/14 16:36:52;;;;;;;4.38;3.30;;;;;;;;;;5016254;28;20022;-85
2023/05/14 16:39:17;;;;;;;3.70;3.40;;;;;;;;;;5014515;28;20034;-85
2023/05/14 16:41:43;;;;;;;5.07;3.80;;;;;;;;;;5015726;28;20057;-85
2023/05/14 16:44:08;;;;;;;4.63;3.90;;;;;;;;;;5014509;28;20025;-85
2023/05/14 16:46:34;;;;;;;4.40;4.00;;;;;;;;;;5015763;28;20029;-85
2023/05/14 16:49:01;;;;;;;5.18;4.00;;;;;;;;;;5015743;28;20080;-85
2023/05/14 16:51:26;;;;;;;4.85;3.85;;;;;;;;;;5003016;28;20037;-86
2023/05/14 16:53:52;;;;;;;4.28;3.95;;;;;;;;;;4996062;28;20022;-86
2023/05/14 16:56:17;;;;;;;4.20;3.55;;;;;;;;;;4995993;28;20528;-86
2023/05/14 16:58:43;;;;;;;5.93;3.90;;;;;;;;;;4996068;28;20022;-87
2023/05/14 17:01:08;;;;;;;3.85;3.55;;;;;;;;;;4994618;28;20034;-87
2023/05/14 17:03:34;;;;;;;4.20;3.78;;;;;;;;;;4996585;28;20512;-85
2023/05/14 17:05:59;;;;;;;4.43;4.05;;;;;;;;;;4996174;28;20113;-85
2023/05/14 17:08:25;;;;;;;4.97;4.47;;;;;;;;;;4994761;28;20058;-88
2023/05/14 17:10:50;;;;;;;5.40;4.90;;;;;;;;;;4978703;28;20392;-86
2023/05/14 17:13:16;;;;;;;4.97;4.55;;;;;;;;;;4996109;28;20036;-85
2023/05/14 17:15:41;;;;;;;4.85;4.20;;;;;;;;;;4995260;28;20481;-86
2023/05/14 17:18:07;;;;;;;4.85;4.45;;;;;;;;;;4994276;28;20046;-88
2023/05/14 17:20:32;;;;;;;4.60;4.20;;;;;;;;;;4993995;28;20034;-86
2023/05/14 17:22:58;;;;;;;4.60;4.20;;;;;;;;;;4995449;28;20080;-87
2023/05/14 17:25:25;;;;;;;5.05;4.53;;;;;;;;;;4995222;28;20030;-88
2023/05/14 17:27:51;;;;;;;4.57;4.18;;;;;;;;;;4995601;28;20033;-88
2023/05/14 17:30:16;;;;;;;5.50;4.35;;;;;;;;;;4994184;28;20033;-90
2023/05/14 17:32:42;;;;;;;6.40;4.70;;;;;;;;;;4994139;28;20030;-88
2023/05/14 17:35:09;;;;;;;7.55;4.45;;;;;;;;;;4995503;28;20072;-89
2023/05/14 17:37:35;;;;;;;5.07;4.30;;;;;;;;;;4994107;28;20030;-89
2023/05/14 17:40:01;;;;;;;5.95;4.70;;;;;;;;;;4993923;28;20433;-88
2023/05/14 17:42:27;;;;;;;4.43;4.03;;;;;;;;;;4995279;28;20073;-87
2023/05/14 17:44:52;;;;;;;5.90;4.72;;;;;;;;;;4995139;28;20031;-87
2023/05/14 17:47:19;;;;;;;5.57;4.47;;;;;;;;;;4995247;28;20030;-86
2023/05/14 17:49:46;;;;;;;4.70;4.00;;;;;;;;;;4995108;28;20101;-89
2023/05/14 17:52:12;;;;;;;6.40;4.30;;;;;;;;;;4993881;28;20030;-88
2023/05/14 17:54:37;;;;;;;6.05;5.13;;;;;;;;;;4993653;28;20073;-85
2023/05/14 17:57:03;;;;;;;7.80;7.00;;;;;;;;;;4994911;28;20411;-86
2023/05/14 17:59:28;;;;;;;5.97;5.38;;;;;;;;;;4993421;28;20496;-85
2023/05/14 18:01:53;;;;;;;4.90;4.50;;;;;;;;;;4994971;28;20425;-85
2023/05/14 18:04:19;;;;;;;5.93;5.18;;;;;;;;;;4995016;28;20139;-85
2023/05/14 18:06:44;;;;;;;5.22;4.72;;;;;;;;;;4994289;28;20069;-86
2023/05/14 18:09:10;;;;;;;5.60;5.10;;;;;;;;;;4994910;28;20022;-85
2023/05/14 18:11:35;;;;;;;5.00;4.50;;;;;;;;;;4994732;28;20101;-85
2023/05/14 18:14:01;;;;;;;5.20;4.75;;;;;;;;;;4994517;28;20035;-85
2023/05/14 18:16:27;;;;;;;7.20;5.32;;;;;;;;;;4994519;28;20145;-88
2023/05/14 18:18:55;;;;;;;5.50;5.10;;;;;;;;;;5006039;28;20061;-85
2023/05/14 18:21:20;;;;;;;6.47;5.32;;;;;;;;;;4996634;28;20034;-86
2023/05/14 18:23:46;;;;;;;5.55;5.05;;;;;;;;;;4996273;28;20033;-86
2023/05/14 18:26:11;;;;;;;6.70;5.10;;;;;;;;;;5029909;28;20032;-86
2023/05/14 18:28:36;;;;;;;6.57;4.55;;;;;;;;;;5033491;28;20056;-86
2023/05/14 18:31:05;;;;;;;5.38;4.88;;;;;;;;;;5033696;28;20036;-86
2023/05/14 18:33:30;;;;;;;5.85;5.30;;;;;;;;;;5033455;28;20029;-86
2023/05/14 18:35:56;;;;;;;6.18;5.57;;;;;;;;;;5033503;28;20433;-86
2023/05/14 18:38:22;;;;;;;5.65;5.07;;;;;;;;;;5033680;28;20084;-88
2023/05/14 18:40:48;;;;;;;6.53;5.72;;;;;;;;;;5033445;28;20035;-87
2023/05/14 18:43:15;;;;;;;7.07;5.55;;;;;;;;;;5033282;28;20423;-87
2023/05/14 18:45:41;;;;;;;5.68;5.18;;;;;;;;;;5033305;28;20021;-87
2023/05/14 18:48:07;;;;;;;7.15;5.78;;;;;;;;;;5015403;28;20087;-86
2023/05/14 18:50:32;;;;;;;6.03;5.43;;;;;;;;;;5033239;28;20472;-87
2023/05/14 18:52:58;;;;;;;6.07;5.57;;;;;;;;;;5015886;28;20056;-86
2023/05/14 18:55:23;;;;;;;7.00;5.43;;;;;;;;;;5033383;28;20393;-86
2023/05/14 18:57:49;;;;;;;6.13;5.55;;;;;;;;;;5033449;28;20021;-86
2023/05/14 19:00:14;;;;;;;6.20;5.68;;;;;;;;;;5015552;28;20071;-86
2023/05/14 19:02:40;;;;;;;6.68;5.50;;;;;;;;;;5033322;28;20026;-87
2023/05/14 19:05:06;;;;;;;6.63;5.80;;;;;;;;;;5033212;28;20496;-87
2023/05/14 19:07:32;;;;;;;8.27;6.30;;;;;;;;;;5033041;28;20033;-87
2023/05/14 19:09:57;;;;;;;6.55;6.03;;;;;;;;;;5015340;28;20029;-87
2023/05/14 19:12:23;;;;;;;7.00;6.30;;;;;;;;;;5015493;28;20033;-85
2023/05/14 19:14:48;;;;;;;7.50;6.38;;;;;;;;;;5033067;28;20037;-87
2023/05/14 19:17:14;;;;;;;6.15;5.55;;;;;;;;;;5033205;28;20032;-87
2023/05/14 19:19:39;;;;;;;6.93;6.22;;;;;;;;;;5015053;28;20048;-87
2023/05/14 19:22:05;;;;;;;6.65;5.95;;;;;;;;;;5033291;28;20491;-87
2023/05/14 19:24:31;;;;;;;6.45;5.85;;;;;;;;;;5015293;28;20435;-87
2023/05/14 19:26:56;;;;;;;6.97;6.13;;;;;;;;;;5032881;28;20026;-87
2023/05/14 19:29:22;;;;;;;6.90;6.13;;;;;;;;;;5015640;28;20065;-88
2023/05/14 19:31:47;;;;;;;8.02;7.32;;;;;;;;;;5033192;28;20103;-87
2023/05/14 19:34:12;;;;;;;7.72;6.63;;;;;;;;;;5015442;28;20026;-86
2023/05/14 19:36:38;;;;;;;7.25;6.65;;;;;;;;;;5022849;28;20050;-87
2023/05/14 19:39:04;;;;;;;7.82;6.93;;;;;;;;;;4998701;28;20033;-87
2023/05/14 19:41:29;;;;;;;8.70;7.38;;;;;;;;;;4999687;28;20030;-87
2023/05/14 19:43:54;;;;;;;8.88;7.65;;;;;;;;;;5017256;28;20466;-86
2023/05/14 19:46:20;;;;;;;8.35;7.20;;;;;;;;;;5017035;28;20105;-87
2023/05/14 19:48:47;;;;;;;9.98;8.10;;;;;;;;;;5017253;28;20105;-87
2023/05/14 19:51:13;;;;;;;9.27;8.02;;;;;;;;;;5017351;28;20038;-87
2023/05/14 19:53:38;;;;;;;10.32;8.40;;;;;;;;;;5017139;28;20500;-86
2023/05/14 19:56:04;;;;;;;9.60;8.60;;;;;;;;;;4999601;28;20031;-86
2023/05/14 19:58:29;;;;;;;9.48;8.57;;;;;;;;;;5018613;28;20022;-87
2023/05/14 20:00:56;;;;;;;9.32;8.45;;;;;;;;;;5018684;28;20480;-87
2023/05/14 20:03:24;;;;;;;8.80;7.90;;;;;;;;;;5018539;28;20045;-86
2023/05/14 20:05:50;;;;;;;9.73;8.73;;;;;;;;;;5017400;28;20025;-87
2023/05/14 20:08:15;;;;;;;9.55;8.65;;;;;;;;;;5017067;28;20469;-86
2023/05/14 20:10:41;;;;;;;9.60;8.60;;;;;;;;;;5016766;28;20026;-87
2023/05/14 20:13:07;;;;;;;9.73;8.70;;;;;;;;;;5016837;28;20416;-86
2023/05/14 20:15:33;;;;;;;11.50;9.23;;;;;;;;;;5016521;28;20033;-87
2023/05/14 20:17:59;;;;;;;11.45;9.52;;;;;;;;;;5016377;28;20045;-87
2023/05/14 20:20:25;;;;;;;10.00;9.07;;;;;;;;;;5016293;28;20095;-87
2023/05/14 20:22:51;;;;;;;11.27;10.07;;;;;;;;;;4998824;28;20481;-87
2023/05/14 20:25:16;;;;;;;9.82;8.82;;;;;;;;;;4998622;28;20030;-86
2023/05/14 20:27:42;;;;;;;11.50;9.40;;;;;;;;;;5016537;28;20033;-87
2023/05/14 20:30:07;;;;;;;10.25;9.23;;;;;;;;;;4998473;28;20041;-87
2023/05/14 20:32:33;;;;;;;10.38;9.07;;;;;;;;;;5015683;28;20029;-87
2023/05/14 20:35:00;;;;;;;10.48;9.45;;;;;;;;;;5016064;28;20473;-87
2023/05/14 20:37:31;;;;;;;9.93;8.93;;;;;;;;;;4998654;28;20428;-87
2023/05/14 20:39:57;;;;;;;10.23;9.18;;;;;;;;;;4998223;28;20048;-86
2023/05/14 20:42:22;;;;;;;10.07;9.05;;;;;;;;;;5016132;28;20465;-87
2023/05/14 20:44:49;;;;;;;10.75;9.57;;;;;;;;;;5015881;28;20037;-87
2023/05/14 20:47:19;;;;;;;10.57;9.10;;;;;;;;;;5015858;28;20116;-87
2023/05/14 20:49:45;;;;;;;11.23;9.32;;;;;;;;;;4997560;28;20037;-87
2023/05/14 20:52:11;;;;;;;10.48;9.38;;;;;;;;;;4998498;28;20487;-87
2023/05/14 20:54:36;;;;;;;10.80;9.45;;;;;;;;;;5015723;28;20022;-87
2023/05/14 20:57:02;;;;;;;10.98;9.88;;;;;;;;;;5015608;28;20469;-87
2023/05/14 20:59:27;;;;;;;10.35;9.27;;;;;;;;;;5015792;28;20029;-88
2023/05/14 21:01:52;;;;;;;11.98;9.55;;;;;;;;;;5015892;28;20028;-88
2023/05/14 21:04:18;;;;;;;10.50;9.43;;;;;;;;;;5015713;28;20026;-88
2023/05/14 21:06:43;;;;;;;13.48;10.48;;;;;;;;;;5015525;28;20030;-87
2023/05/14 21:09:09;;;;;;;12.80;10.32;;;;;;;;;;4997798;28;20026;-87
2023/05/14 21:11:35;;;;;;;12.23;10.35;;;;;;;;;;5015789;28;20025;-87
2023/05/14 21:14:00;;;;;;;12.25;11.02;;;;;;;;;;4997820;28;20033;-87
2023/05/14 21:16:26;;;;;;;12.55;11.07;;;;;;;;;;5015354;28;20033;-87
2023/05/14 21:18:51;;;;;;;12.60;11.05;;;;;;;;;;4997599;28;20504;-87
2023/05/14 21:21:16;;;;;;;13.95;11.60;;;;;;;;;;5015304;28;20037;-87
2023/05/14 21:23:42;;;;;;;13.38;11.82;;;;;;;;;;5015355;28;20428;-88
2023/05/14 21:26:07;;;;;;;13.90;11.45;;;;;;;;;;5015282;28;20022;-87
2023/05/14 21:28:33;;;;;;;14.10;11.63;;;;;;;;;;5015377;28;20473;-88
2023/05/14 21:30:58;;;;;;;13.68;11.80;;;;;;;;;;5015501;28;20029;-88
2023/05/14 21:33:23;;;;;;;14.95;11.32;;;;;;;;;;5015316;28;20046;-87
2023/05/14 21:35:49;;;;;;;12.20;10.90;;;;;;;;;;5015270;28;20105;-87
2023/05/14 21:38:14;;;;;;;12.75;11.45;;;;;;;;;;4997767;28;20025;-87
2023/05/14 21:40:40;;;;;;;12.05;10.65;;;;;;;;;;5015347;28;20381;-88
2023/05/14 21:43:05;;;;;;;16.63;11.85;;;;;;;;;;5015717;28;20025;-87
2023/05/14 21:45:31;;;;;;;15.40;11.45;;;;;;;;;;5015271;28;20022;-88
2023/05/14 21:47:56;;;;;;;13.20;11.70;;;;;;;;;;5015707;28;20346;-87
2023/05/14 21:50:22;;;;;;;14.45;12.20;;;;;;;;;;4997482;28;20026;-87
2023/05/14 21:52:47;;;;;;;14.77;12.00;;;;;;;;;;5015198;28;20033;-89
2023/05/14 21:55:13;;;;;;;13.45;11.50;;;;;;;;;;5015366;28;20034;-88
2023/05/14 21:57:39;;;;;;;13.35;10.77;;;;;;;;;;5015649;28;20068;-88
2023/05/14 22:00:10;;;;;;;14.60;11.48;;;;;;;;;;5015748;28;20469;-88
2023/05/14 22:02:36;;;;;;;12.32;11.02;;;;;;;;;;4984192;28;20037;-96
2023/05/14 22:05:01;;;;;;;12.73;11.15;;;;;;;;;;4999147;28;20022;-89
2023/05/14 22:07:27;;;;;;;14.10;10.85;;;;;;;;;;5016147;28;20025;-88
